createdAt,value
2018-12-16T00:00:38.702Z,-2.70
2018-12-16T00:03:07.289Z,-2.60
2018-12-16T00:05:36.561Z,-2.60
2018-12-16T00:08:06.545Z,-2.50
2018-12-16T00:10:35.531Z,-2.50
2018-12-16T00:13:03.984Z,-2.60
2018-12-16T00:15:32.633Z,-2.60
2018-12-16T00:18:01.612Z,-2.60
2018-12-16T00:20:30.308Z,-2.60
2018-12-16T00:22:58.768Z,-2.60
2018-12-16T00:25:27.405Z,-2.50
2018-12-16T00:27:56.074Z,-2.60
2018-12-16T00:30:24.554Z,-2.60
2018-12-16T00:32:52.875Z,-2.60
2018-12-16T00:35:21.377Z,-2.60
2018-12-16T00:37:50.428Z,-2.50
2018-12-16T00:40:19.069Z,-2.50
2018-12-16T00:42:47.663Z,-2.50
2018-12-16T00:45:16.443Z,-2.50
2018-12-16T00:47:45.190Z,-2.50
2018-12-16T00:50:13.560Z,-2.50
2018-12-16T00:52:42.303Z,-2.40
2018-12-16T00:55:11.106Z,-2.20
2018-12-16T00:57:39.682Z,-2.10
2018-12-16T01:00:12.998Z,-2.10
2018-12-16T01:02:42.232Z,-2.00
2018-12-16T01:05:11.398Z,-2.00
2018-12-16T01:07:40.346Z,-2.00
2018-12-16T01:10:09.921Z,-2.00
2018-12-16T01:12:38.156Z,-2.10
2018-12-16T01:15:06.881Z,-2.10
2018-12-16T01:17:35.432Z,-2.20
2018-12-16T01:20:04.108Z,-2.10
2018-12-16T01:22:32.857Z,-2.00
2018-12-16T01:25:01.493Z,-2.00
2018-12-16T01:27:30.420Z,-1.90
2018-12-16T01:30:00.031Z,-1.90
2018-12-16T01:32:28.640Z,-1.80
2018-12-16T01:34:57.338Z,-1.80
2018-12-16T01:37:27.129Z,-1.90
2018-12-16T01:39:55.545Z,-1.90
2018-12-16T01:42:25.201Z,-2.00
2018-12-16T01:44:53.580Z,-2.00
2018-12-16T01:47:23.254Z,-1.90
2018-12-16T01:49:52.305Z,-1.90
2018-12-16T01:52:20.780Z,-1.90
2018-12-16T01:54:49.241Z,-1.90
2018-12-16T01:57:17.727Z,-2.00
2018-12-16T01:59:46.102Z,-2.00
2018-12-16T02:02:15.325Z,-2.00
2018-12-16T02:04:43.824Z,-2.00
2018-12-16T02:07:12.626Z,-2.00
2018-12-16T02:09:41.392Z,-2.00
2018-12-16T02:12:09.938Z,-2.00
2018-12-16T02:14:38.278Z,-2.00
2018-12-16T02:17:06.819Z,-1.90
2018-12-16T02:19:35.552Z,-1.90
2018-12-16T02:22:04.182Z,-1.80
2018-12-16T02:24:32.548Z,-1.80
2018-12-16T02:27:01.237Z,-1.70
2018-12-16T02:29:29.649Z,-1.70
2018-12-16T02:31:58.628Z,-1.60
2018-12-16T02:34:27.144Z,-1.60
2018-12-16T02:36:56.240Z,-1.70
2018-12-16T02:39:24.579Z,-1.80
2018-12-16T02:41:53.208Z,-1.80
2018-12-16T02:44:21.716Z,-1.80
2018-12-16T02:46:50.669Z,-1.80
2018-12-16T02:49:19.368Z,-1.80
2018-12-16T02:51:48.094Z,-1.90
2018-12-16T02:54:16.720Z,-1.90
2018-12-16T02:56:45.581Z,-1.90
2018-12-16T02:59:14.117Z,-1.80
2018-12-16T03:01:46.865Z,-1.90
2018-12-16T03:04:15.443Z,-2.00
2018-12-16T03:06:43.794Z,-2.00
2018-12-16T03:09:12.226Z,-2.10
2018-12-16T03:11:40.793Z,-2.10
2018-12-16T03:14:09.138Z,-2.00
2018-12-16T03:16:37.425Z,-2.00
2018-12-16T03:19:06.627Z,-2.00
2018-12-16T03:21:35.405Z,-2.10
2018-12-16T03:24:03.900Z,-2.10
2018-12-16T03:26:36.157Z,-2.20
2018-12-16T03:29:04.869Z,-2.20
2018-12-16T03:31:33.406Z,-2.20
2018-12-16T03:34:01.770Z,-2.20
2018-12-16T03:36:30.622Z,-2.20
2018-12-16T03:38:58.976Z,-2.20
2018-12-16T03:41:27.478Z,-2.10
2018-12-16T03:43:55.871Z,-2.10
2018-12-16T03:46:24.221Z,-2.00
2018-12-16T03:48:53.352Z,-1.90
2018-12-16T03:51:22.053Z,-1.70
2018-12-16T03:53:50.431Z,-1.80
2018-12-16T03:56:18.681Z,-1.80
2018-12-16T03:58:58.496Z,-1.80
2018-12-16T04:01:27.069Z,-1.80
2018-12-16T04:03:56.449Z,-1.80
2018-12-16T04:06:25.084Z,-1.80
2018-12-16T04:08:53.457Z,-1.80
2018-12-16T04:11:22.781Z,-1.90
2018-12-16T04:13:51.060Z,-1.90
2018-12-16T04:16:19.404Z,-1.90
2018-12-16T04:18:48.035Z,-1.90
2018-12-16T04:21:17.001Z,-1.90
2018-12-16T04:23:45.251Z,-1.80
2018-12-16T04:26:13.527Z,-1.80
2018-12-16T04:28:42.018Z,-1.80
2018-12-16T04:31:10.516Z,-1.80
2018-12-16T04:33:38.820Z,-1.70
2018-12-16T04:36:07.161Z,-1.80
2018-12-16T04:38:35.604Z,-1.70
2018-12-16T04:41:04.233Z,-1.60
2018-12-16T04:43:32.549Z,-1.50
2018-12-16T04:46:01.096Z,-1.00
2018-12-16T04:48:29.469Z,-0.50
2018-12-16T04:51:01.255Z,-0.30
2018-12-16T04:53:35.884Z,-0.10
2018-12-16T04:56:00.209Z,0.00
2018-12-16T04:58:29.756Z,0.10
2018-12-16T05:00:58.124Z,0.10
2018-12-16T05:03:26.387Z,0.10
2018-12-16T05:05:55.246Z,0.10
2018-12-16T05:08:23.782Z,0.10
2018-12-16T05:10:53.451Z,0.00
2018-12-16T05:13:22.220Z,-0.10
2018-12-16T05:15:50.755Z,-0.20
2018-12-16T05:18:19.374Z,-0.20
2018-12-16T05:20:47.794Z,-0.40
2018-12-16T05:23:16.229Z,-0.40
2018-12-16T05:25:45.213Z,-0.20
2018-12-16T05:28:13.540Z,-0.10
2018-12-16T05:30:42.130Z,0.00
2018-12-16T05:33:10.305Z,0.20
2018-12-16T05:35:39.002Z,0.30
2018-12-16T05:38:08.633Z,0.40
2018-12-16T05:40:36.892Z,0.40
2018-12-16T05:43:05.275Z,0.40
2018-12-16T05:45:33.739Z,0.50
2018-12-16T05:48:03.469Z,0.50
2018-12-16T05:50:32.143Z,0.50
2018-12-16T05:53:00.951Z,0.50
2018-12-16T05:55:29.311Z,0.50
2018-12-16T05:57:57.656Z,0.50
2018-12-16T06:00:25.837Z,0.60
2018-12-16T06:02:54.313Z,0.60
2018-12-16T06:05:22.689Z,0.60
2018-12-16T06:07:50.904Z,0.60
2018-12-16T06:10:19.341Z,0.70
2018-12-16T06:12:47.544Z,0.80
2018-12-16T06:15:16.116Z,0.80
2018-12-16T06:17:44.481Z,0.80
2018-12-16T06:20:13.298Z,0.80
2018-12-16T06:22:42.033Z,0.80
2018-12-16T06:25:11.009Z,0.80
2018-12-16T06:27:39.595Z,0.90
2018-12-16T06:30:08.990Z,0.90
2018-12-16T06:32:38.575Z,0.90
2018-12-16T06:35:07.182Z,0.90
2018-12-16T06:37:36.345Z,0.90
2018-12-16T06:40:05.513Z,1.00
2018-12-16T06:42:33.822Z,1.00
2018-12-16T06:45:02.296Z,1.00
2018-12-16T06:47:31.380Z,0.90
2018-12-16T06:50:00.950Z,0.90
2018-12-16T06:52:30.264Z,0.90
2018-12-16T06:54:58.689Z,0.90
2018-12-16T06:57:27.054Z,0.90
2018-12-16T06:59:55.691Z,0.90
2018-12-16T07:02:25.179Z,0.90
2018-12-16T07:04:54.334Z,1.00
2018-12-16T07:07:22.827Z,1.10
2018-12-16T07:09:51.427Z,1.10
2018-12-16T07:12:20.124Z,1.10
2018-12-16T07:14:49.460Z,1.10
2018-12-16T07:17:17.695Z,1.20
2018-12-16T07:19:46.286Z,1.20
2018-12-16T07:22:14.799Z,1.20
2018-12-16T07:24:43.148Z,1.20
2018-12-16T07:27:11.546Z,1.10
2018-12-16T07:29:40.203Z,1.20
2018-12-16T07:32:09.093Z,1.20
2018-12-16T07:34:37.328Z,1.20
2018-12-16T07:37:05.683Z,1.20
2018-12-16T07:39:40.595Z,1.20
2018-12-16T07:42:08.981Z,1.20
2018-12-16T07:44:37.211Z,1.20
2018-12-16T07:47:05.846Z,1.30
2018-12-16T07:49:34.332Z,1.30
2018-12-16T07:52:02.552Z,1.20
2018-12-16T07:54:30.885Z,1.30
2018-12-16T07:56:59.198Z,1.30
2018-12-16T07:59:27.769Z,1.40
2018-12-16T08:01:56.357Z,1.50
2018-12-16T08:04:24.844Z,1.50
2018-12-16T08:06:53.369Z,1.60
2018-12-16T08:09:21.703Z,1.60
2018-12-16T08:11:50.068Z,1.80
2018-12-16T08:14:18.608Z,1.90
2018-12-16T08:16:48.183Z,2.00
2018-12-16T08:19:16.488Z,2.10
2018-12-16T08:21:50.169Z,2.10
2018-12-16T08:24:23.111Z,2.10
2018-12-16T08:26:48.758Z,2.10
2018-12-16T08:29:17.235Z,2.10
2018-12-16T08:31:45.493Z,2.00
2018-12-16T08:34:13.822Z,1.90
2018-12-16T08:36:42.391Z,1.80
2018-12-16T08:39:10.877Z,1.70
2018-12-16T08:41:39.271Z,1.70
2018-12-16T08:44:07.531Z,1.80
2018-12-16T08:46:36.109Z,1.80
2018-12-16T08:49:04.597Z,1.90
2018-12-16T08:51:32.893Z,1.90
2018-12-16T08:54:01.273Z,2.00
2018-12-16T08:56:29.701Z,2.10
2018-12-16T08:58:58.058Z,2.20
2018-12-16T09:01:26.369Z,2.20
2018-12-16T09:03:55.541Z,2.20
2018-12-16T09:06:24.352Z,2.20
2018-12-16T09:08:53.238Z,2.20
2018-12-16T09:11:21.482Z,2.20
2018-12-16T09:13:50.169Z,2.20
2018-12-16T09:16:18.521Z,2.30
2018-12-16T09:18:46.776Z,2.20
2018-12-16T09:21:15.283Z,2.20
2018-12-16T09:23:44.115Z,2.10
2018-12-16T09:26:13.324Z,2.10
2018-12-16T09:28:43.083Z,2.20
2018-12-16T09:31:11.651Z,2.20
2018-12-16T09:33:40.066Z,2.30
2018-12-16T09:36:08.284Z,2.40
2018-12-16T09:38:36.554Z,2.60
2018-12-16T09:41:05.149Z,2.70
2018-12-16T09:43:33.450Z,2.80
2018-12-16T09:46:01.809Z,2.90
2018-12-16T09:48:30.062Z,2.80
2018-12-16T09:50:58.601Z,3.00
2018-12-16T09:53:27.096Z,3.00
2018-12-16T09:55:55.654Z,3.00
2018-12-16T09:58:23.948Z,2.80
2018-12-16T10:00:52.353Z,2.80
2018-12-16T10:03:20.659Z,2.90
2018-12-16T10:05:49.151Z,2.80
2018-12-16T10:08:17.549Z,2.90
2018-12-16T10:10:45.943Z,2.80
2018-12-16T10:13:14.190Z,2.80
2018-12-16T10:15:42.600Z,3.00
2018-12-16T10:18:10.936Z,3.10
2018-12-16T10:20:39.756Z,3.20
2018-12-16T10:23:08.352Z,3.30
2018-12-16T10:25:36.899Z,3.40
2018-12-16T10:28:05.529Z,3.50
2018-12-16T10:30:34.105Z,3.80
2018-12-16T10:33:02.667Z,3.90
2018-12-16T10:35:31.151Z,4.10
2018-12-16T10:37:59.385Z,4.20
2018-12-16T10:40:27.789Z,4.30
2018-12-16T10:42:56.141Z,4.30
2018-12-16T10:45:24.341Z,4.30
2018-12-16T10:47:52.763Z,4.30
2018-12-16T10:50:21.549Z,4.20
2018-12-16T10:52:50.201Z,4.10
2018-12-16T10:55:18.435Z,4.10
2018-12-16T10:57:47.111Z,4.20
2018-12-16T11:00:20.866Z,4.20
2018-12-16T11:02:49.270Z,4.50
2018-12-16T11:05:18.053Z,4.70
2018-12-16T11:07:46.386Z,4.90
2018-12-16T11:10:14.792Z,4.90
2018-12-16T11:12:43.450Z,4.80
2018-12-16T11:15:11.717Z,4.70
2018-12-16T11:17:40.069Z,4.60
2018-12-16T11:20:08.595Z,4.80
2018-12-16T11:22:36.854Z,4.90
2018-12-16T11:25:07.647Z,4.80
2018-12-16T11:27:36.181Z,4.80
2018-12-16T11:30:05.117Z,4.70
2018-12-16T11:32:33.598Z,4.60
2018-12-16T11:35:01.873Z,4.60
2018-12-16T11:37:30.307Z,4.60
2018-12-16T11:39:58.691Z,4.60
2018-12-16T11:42:26.898Z,4.60
2018-12-16T11:44:55.415Z,4.70
2018-12-16T11:47:23.997Z,4.90
2018-12-16T11:49:52.532Z,5.00
2018-12-16T11:52:20.835Z,5.10
2018-12-16T11:54:49.262Z,5.20
2018-12-16T11:57:17.977Z,5.20
2018-12-16T11:59:46.245Z,5.30
2018-12-16T12:02:14.867Z,5.40
2018-12-16T12:04:44.568Z,5.50
2018-12-16T12:07:12.908Z,5.50
2018-12-16T12:09:41.485Z,5.50
2018-12-16T12:12:09.873Z,5.50
2018-12-16T12:14:38.057Z,5.60
2018-12-16T12:17:06.363Z,5.70
2018-12-16T12:19:39.073Z,5.90
2018-12-16T12:22:07.527Z,6.00
2018-12-16T12:24:36.071Z,6.10
2018-12-16T12:27:04.584Z,6.10
2018-12-16T12:29:32.901Z,6.00
2018-12-16T12:32:01.369Z,6.00
2018-12-16T12:34:29.717Z,6.00
2018-12-16T12:36:58.529Z,6.00
2018-12-16T12:39:27.111Z,6.20
2018-12-16T12:41:55.409Z,6.30
2018-12-16T12:44:23.783Z,6.50
2018-12-16T12:46:52.086Z,6.60
2018-12-16T12:49:20.420Z,6.50
2018-12-16T12:51:48.925Z,6.50
2018-12-16T12:54:17.268Z,6.40
2018-12-16T12:56:45.518Z,6.20
2018-12-16T12:59:13.781Z,6.20
2018-12-16T13:01:41.994Z,6.10
2018-12-16T13:04:10.293Z,6.00
2018-12-16T13:06:38.628Z,6.00
2018-12-16T13:09:08.443Z,6.00
2018-12-16T13:11:37.817Z,6.10
2018-12-16T13:14:06.169Z,6.20
2018-12-16T13:16:34.456Z,6.20
2018-12-16T13:19:03.232Z,6.30
2018-12-16T13:21:32.238Z,6.20
2018-12-16T13:24:00.567Z,6.20
2018-12-16T13:26:29.025Z,6.30
2018-12-16T13:28:58.013Z,6.20
2018-12-16T13:31:26.373Z,6.20
2018-12-16T13:33:54.838Z,6.10
2018-12-16T13:36:24.112Z,6.00
2018-12-16T13:38:52.353Z,5.90
2018-12-16T13:41:22.045Z,5.90
2018-12-16T13:43:50.897Z,5.80
2018-12-16T13:46:19.366Z,5.90
2018-12-16T13:48:47.762Z,5.80
2018-12-16T13:51:16.362Z,5.80
2018-12-16T13:53:44.721Z,5.80
2018-12-16T13:56:13.311Z,5.70
2018-12-16T13:58:41.767Z,5.70
2018-12-16T14:01:10.191Z,5.60
2018-12-16T14:03:38.463Z,5.60
2018-12-16T14:06:07.406Z,5.50
2018-12-16T14:08:36.250Z,5.60
2018-12-16T14:11:05.972Z,5.50
2018-12-16T14:13:34.721Z,5.40
2018-12-16T14:16:03.027Z,5.50
2018-12-16T14:18:31.439Z,5.50
2018-12-16T14:20:59.980Z,5.50
2018-12-16T14:23:28.297Z,5.40
2018-12-16T14:25:57.518Z,5.40
2018-12-16T14:28:25.737Z,5.30
2018-12-16T14:30:54.222Z,5.30
2018-12-16T14:33:22.642Z,5.20
2018-12-16T14:35:51.296Z,5.20
2018-12-16T14:38:30.742Z,5.10
2018-12-16T14:40:59.550Z,5.10
2018-12-16T14:43:27.869Z,4.90
2018-12-16T14:45:56.064Z,4.70
2018-12-16T14:48:24.271Z,4.60
2018-12-16T14:50:52.754Z,4.40
2018-12-16T14:53:21.170Z,4.20
2018-12-16T14:55:55.200Z,4.10
2018-12-16T14:58:20.617Z,4.00
2018-12-16T15:00:49.273Z,3.80
2018-12-16T15:03:18.368Z,3.80
2018-12-16T15:05:47.617Z,3.70
2018-12-16T15:08:16.045Z,3.60
2018-12-16T15:10:44.671Z,3.50
2018-12-16T15:13:13.417Z,3.40
2018-12-16T15:15:42.189Z,3.30
2018-12-16T15:18:10.556Z,3.20
2018-12-16T15:20:39.074Z,3.00
2018-12-16T15:23:07.351Z,2.90
2018-12-16T15:25:35.876Z,2.80
2018-12-16T15:28:04.786Z,2.70
2018-12-16T15:30:34.128Z,2.60
2018-12-16T15:33:02.813Z,2.50
2018-12-16T15:35:31.726Z,2.40
2018-12-16T15:38:00.252Z,2.30
2018-12-16T15:40:28.739Z,2.30
2018-12-16T15:42:57.391Z,2.20
2018-12-16T15:45:25.870Z,2.20
2018-12-16T15:47:54.130Z,2.20
2018-12-16T15:50:23.898Z,2.30
2018-12-16T15:52:52.527Z,2.30
2018-12-16T15:55:20.791Z,2.40
2018-12-16T15:57:49.717Z,2.50
2018-12-16T16:00:18.794Z,2.50
2018-12-16T16:02:47.551Z,2.50
2018-12-16T16:05:17.593Z,2.50
2018-12-16T16:07:46.272Z,2.50
2018-12-16T16:10:15.258Z,2.50
2018-12-16T16:12:44.217Z,2.50
2018-12-16T16:15:14.231Z,2.60
2018-12-16T16:17:42.768Z,2.50
2018-12-16T16:20:11.794Z,2.50
2018-12-16T16:22:40.384Z,2.50
2018-12-16T16:25:09.115Z,2.50
2018-12-16T16:27:37.360Z,2.50
2018-12-16T16:30:06.799Z,2.50
2018-12-16T16:32:35.218Z,2.40
2018-12-16T16:35:03.902Z,2.40
2018-12-16T16:37:32.744Z,2.30
2018-12-16T16:40:01.218Z,2.20
2018-12-16T16:42:30.690Z,2.30
2018-12-16T16:44:59.227Z,2.30
2018-12-16T16:47:28.462Z,2.40
2018-12-16T16:49:57.198Z,2.40
2018-12-16T16:52:26.083Z,2.50
2018-12-16T16:54:54.578Z,2.60
2018-12-16T16:57:23.938Z,2.70
2018-12-16T16:59:52.259Z,2.70
2018-12-16T17:02:21.277Z,2.80
2018-12-16T17:04:49.654Z,2.70
2018-12-16T17:07:18.464Z,2.70
2018-12-16T17:09:47.027Z,2.80
2018-12-16T17:12:15.631Z,2.80
2018-12-16T17:14:44.689Z,2.70
2018-12-16T17:17:13.207Z,2.60
2018-12-16T17:19:41.750Z,2.50
2018-12-16T17:22:10.183Z,2.30
2018-12-16T17:24:39.473Z,2.10
2018-12-16T17:27:07.867Z,2.00
2018-12-16T17:29:36.321Z,1.90
2018-12-16T17:32:05.770Z,1.80
2018-12-16T17:34:34.320Z,1.60
2018-12-16T17:37:02.906Z,1.60
2018-12-16T17:39:31.267Z,1.50
2018-12-16T17:41:59.612Z,1.50
2018-12-16T17:44:28.082Z,1.40
2018-12-16T17:46:56.671Z,1.30
2018-12-16T17:49:25.024Z,1.20
2018-12-16T17:51:53.957Z,1.10
2018-12-16T17:54:22.325Z,1.00
2018-12-16T17:56:50.827Z,1.10
2018-12-16T17:59:19.448Z,1.00
2018-12-16T18:01:48.245Z,1.00
2018-12-16T18:04:17.711Z,1.20
2018-12-16T18:06:46.687Z,1.40
2018-12-16T18:09:15.569Z,1.50
2018-12-16T18:11:44.130Z,1.50
2018-12-16T18:14:13.096Z,1.40
2018-12-16T18:16:41.897Z,1.40
2018-12-16T18:19:10.704Z,1.50
2018-12-16T18:21:39.372Z,1.50
2018-12-16T18:26:58.226Z,1.40
2018-12-16T18:29:26.436Z,1.70
2018-12-16T18:31:54.647Z,1.90
2018-12-16T18:34:23.447Z,1.80
2018-12-16T18:36:51.974Z,1.70
2018-12-16T18:39:20.339Z,1.70
2018-12-16T18:41:48.858Z,1.60
2018-12-16T18:44:17.449Z,1.50
2018-12-16T18:46:47.269Z,1.40
2018-12-16T18:49:16.060Z,1.30
2018-12-16T18:51:48.334Z,1.30
2018-12-16T18:54:16.805Z,1.30
2018-12-16T18:56:50.887Z,1.30
2018-12-16T18:59:15.708Z,1.30
2018-12-16T19:01:44.801Z,1.30
2018-12-16T19:04:13.351Z,1.30
2018-12-16T19:06:44.002Z,1.40
2018-12-16T19:09:12.552Z,1.50
2018-12-16T19:11:40.983Z,1.50
2018-12-16T19:14:09.775Z,1.40
2018-12-16T19:16:38.622Z,1.40
2018-12-16T19:19:07.344Z,1.20
2018-12-16T19:21:35.790Z,1.20
2018-12-16T19:24:05.490Z,1.00
2018-12-16T19:26:33.882Z,1.00
2018-12-16T19:29:03.486Z,0.80
2018-12-16T19:31:31.982Z,0.80
2018-12-16T19:34:00.605Z,0.90
2018-12-16T19:36:29.207Z,0.90
2018-12-16T19:38:58.034Z,0.90
2018-12-16T19:41:26.851Z,0.90
2018-12-16T19:43:55.882Z,0.90
2018-12-16T19:46:25.337Z,0.80
2018-12-16T19:48:53.740Z,0.90
2018-12-16T19:51:22.402Z,0.90
2018-12-16T19:53:50.925Z,0.80
2018-12-16T19:56:19.445Z,0.80
2018-12-16T19:58:48.746Z,0.90
2018-12-16T20:01:17.161Z,0.80
2018-12-16T20:03:50.942Z,0.80
2018-12-16T20:06:25.045Z,0.70
2018-12-16T20:08:54.244Z,0.70
2018-12-16T20:11:22.724Z,0.70
2018-12-16T20:13:52.522Z,0.70
2018-12-16T20:16:21.838Z,0.70
2018-12-16T20:18:50.218Z,0.60
2018-12-16T20:21:19.374Z,0.60
2018-12-16T20:23:48.062Z,0.60
2018-12-16T20:26:17.152Z,0.70
2018-12-16T20:28:45.886Z,0.70
2018-12-16T20:31:16.029Z,0.80
2018-12-16T20:33:44.461Z,0.80
2018-12-16T20:36:12.986Z,0.90
2018-12-16T20:38:41.874Z,0.90
2018-12-16T20:41:10.361Z,0.90
2018-12-16T20:43:39.160Z,0.90
2018-12-16T20:46:08.332Z,0.90
2018-12-16T20:48:36.906Z,0.90
2018-12-16T20:51:05.412Z,0.90
2018-12-16T20:53:34.572Z,0.90
2018-12-16T20:56:03.511Z,0.90
2018-12-16T20:58:32.330Z,0.90
2018-12-16T21:01:00.747Z,0.90
2018-12-16T21:03:29.252Z,0.90
2018-12-16T21:05:58.478Z,0.90
2018-12-16T21:08:27.920Z,0.90
2018-12-16T21:10:59.910Z,0.90
2018-12-16T21:13:34.543Z,1.00
2018-12-16T21:16:08.653Z,1.00
2018-12-16T21:18:37.588Z,1.00
2018-12-16T21:21:06.463Z,1.00
2018-12-16T21:23:35.203Z,1.00
2018-12-16T21:26:05.194Z,1.10
2018-12-16T21:28:33.813Z,1.10
2018-12-16T21:31:02.430Z,1.10
2018-12-16T21:33:30.912Z,1.00
2018-12-16T21:35:59.444Z,1.00
2018-12-16T21:38:28.609Z,1.00
2018-12-16T21:40:57.177Z,0.90
2018-12-16T21:43:25.836Z,0.70
2018-12-16T21:45:54.792Z,0.60
2018-12-16T21:48:23.481Z,0.50
2018-12-16T21:50:52.084Z,0.40
2018-12-16T21:53:20.642Z,0.20
2018-12-16T21:55:49.123Z,0.10
2018-12-16T21:58:17.570Z,0.00
2018-12-16T22:00:46.477Z,0.00
2018-12-16T22:03:16.003Z,-0.10
2018-12-16T22:05:45.230Z,-0.10
2018-12-16T22:08:13.600Z,-0.20
2018-12-16T22:10:42.265Z,-0.30
2018-12-16T22:13:10.967Z,-0.30
2018-12-16T22:15:39.560Z,-0.30
2018-12-16T22:18:08.231Z,-0.40
2018-12-16T22:20:36.601Z,-0.40
2018-12-16T22:23:04.990Z,-0.50
2018-12-16T22:25:33.779Z,-0.60
2018-12-16T22:28:02.323Z,-0.70
2018-12-16T22:30:30.942Z,-0.70
2018-12-16T22:32:59.339Z,-0.80
2018-12-16T22:35:27.684Z,-0.80
2018-12-16T22:37:56.184Z,-0.90
2018-12-16T22:40:24.822Z,-1.00
2018-12-16T22:42:53.148Z,-1.10
2018-12-16T22:45:21.409Z,-1.20
2018-12-16T22:47:50.774Z,-1.20
2018-12-16T22:50:19.135Z,-1.20
2018-12-16T22:52:49.602Z,-1.30
2018-12-16T22:55:17.889Z,-1.30
2018-12-16T22:57:47.249Z,-1.30
2018-12-16T23:00:18.046Z,-1.30
2018-12-16T23:02:47.358Z,-1.40
2018-12-16T23:05:15.768Z,-1.40
2018-12-16T23:07:45.535Z,-1.50
2018-12-16T23:10:14.233Z,-1.50
2018-12-16T23:12:42.707Z,-1.50
2018-12-16T23:15:12.063Z,-1.50
2018-12-16T23:17:40.686Z,-1.50
2018-12-16T23:20:14.868Z,-1.50
2018-12-16T23:22:44.137Z,-1.50
2018-12-16T23:25:13.270Z,-1.50
2018-12-16T23:27:41.798Z,-1.50
2018-12-16T23:30:10.331Z,-1.60
2018-12-16T23:32:38.713Z,-1.60
2018-12-16T23:35:07.094Z,-1.70
2018-12-16T23:37:36.309Z,-1.80
2018-12-16T23:40:06.089Z,-1.90
2018-12-16T23:42:34.838Z,-1.90
2018-12-16T23:45:03.237Z,-1.90
2018-12-16T23:47:31.533Z,-1.90
2018-12-16T23:49:59.930Z,-2.00
2018-12-16T23:52:28.257Z,-2.00
2018-12-16T23:54:56.922Z,-2.10
2018-12-16T23:57:25.237Z,-2.10
2018-12-16T23:59:53.954Z,-2.00
